Terminal Aerodrome Forecast
Issued by NWS Bismarck, ND

Home | Current Version | Previous Version | Text Only | Print | Product List | Glossary Off
Versions: 1 2 3 4 5 6 7 8 9 10 11 12

000
FTUS43 KBIS 212331
TAFISN
TAF
KISN 212331Z 2200/2224 32016G24KT P6SM VCSH BKN130
     FM220200 34006KT P6SM VCSH BKN130
     FM220600 33005KT P6SM BKN140
     FM220800 33005KT P6SM VCSH BKN100
     FM221500 01014G23KT P6SM BKN090=

USA.gov is the U.S. government's official web portal to all federal, state and local government web resources and services.